createdAt,value
2018-12-07T00:00:30.239Z,0.73
2018-12-07T00:02:58.437Z,0.80
2018-12-07T00:05:26.645Z,0.80
2018-12-07T00:07:55.717Z,0.90
2018-12-07T00:10:23.910Z,0.70
2018-12-07T00:12:52.192Z,0.63
2018-12-07T00:15:20.418Z,0.90
2018-12-07T00:17:48.544Z,1.10
2018-12-07T00:20:16.684Z,2.00
2018-12-07T00:22:44.882Z,0.80
2018-12-07T00:25:13.313Z,1.10
2018-12-07T00:27:41.503Z,0.50
2018-12-07T00:30:09.788Z,0.60
2018-12-07T00:32:37.684Z,0.70
2018-12-07T00:35:05.977Z,0.60
2018-12-07T00:37:34.629Z,0.57
2018-12-07T00:40:02.839Z,0.60
2018-12-07T00:42:31.043Z,0.53
2018-12-07T00:44:58.939Z,0.60
2018-12-07T00:47:28.032Z,0.70
2018-12-07T00:49:56.184Z,0.70
2018-12-07T00:52:24.421Z,0.60
2018-12-07T00:54:52.325Z,0.60
2018-12-07T00:57:20.456Z,0.60
2018-12-07T00:59:48.591Z,0.63
2018-12-07T01:02:16.711Z,0.60
2018-12-07T01:04:44.840Z,0.70
2018-12-07T01:07:12.984Z,0.70
2018-12-07T01:09:41.296Z,0.53
2018-12-07T01:12:09.192Z,0.60
2018-12-07T01:14:37.936Z,0.80
2018-12-07T01:17:05.980Z,0.40
2018-12-07T01:19:34.098Z,0.50
2018-12-07T01:22:02.363Z,0.53
2018-12-07T01:24:30.464Z,0.53
2018-12-07T01:26:58.584Z,0.40
2018-12-07T01:29:26.717Z,0.47
2018-12-07T01:31:54.944Z,0.57
2018-12-07T01:34:22.843Z,0.63
2018-12-07T01:36:51.016Z,0.40
2018-12-07T01:39:19.087Z,0.40
2018-12-07T01:41:47.361Z,0.50
2018-12-07T01:44:15.243Z,0.50
2018-12-07T01:46:43.137Z,0.50
2018-12-07T01:49:11.255Z,0.40
2018-12-07T01:51:39.424Z,0.40
2018-12-07T01:54:07.528Z,0.67
2018-12-07T01:56:35.654Z,0.30
2018-12-07T01:59:03.920Z,0.50
2018-12-07T02:01:32.107Z,0.60
2018-12-07T02:04:00.224Z,0.50
2018-12-07T02:06:28.572Z,0.50
2018-12-07T02:08:56.758Z,0.30
2018-12-07T02:11:25.045Z,0.30
2018-12-07T02:13:53.208Z,0.30
2018-12-07T02:16:21.392Z,0.53
2018-12-07T02:18:49.566Z,0.40
2018-12-07T02:21:17.727Z,0.40
2018-12-07T02:23:45.816Z,0.40
2018-12-07T02:26:13.986Z,0.30
2018-12-07T02:28:41.867Z,0.30
2018-12-07T02:31:10.049Z,0.30
2018-12-07T02:33:38.261Z,0.40
2018-12-07T02:36:06.444Z,0.40
2018-12-07T02:38:34.549Z,0.30
2018-12-07T02:41:02.684Z,0.40
2018-12-07T02:43:30.893Z,0.40
2018-12-07T02:45:59.006Z,0.57
2018-12-07T02:48:26.951Z,0.30
2018-12-07T02:50:55.071Z,0.30
2018-12-07T02:53:23.172Z,0.50
2018-12-07T02:55:51.296Z,0.40
2018-12-07T02:58:19.192Z,0.47
2018-12-07T03:00:47.304Z,0.60
2018-12-07T03:03:15.477Z,0.57
2018-12-07T03:05:43.672Z,0.80
2018-12-07T03:08:11.861Z,0.80
2018-12-07T03:10:40.062Z,0.73
2018-12-07T03:13:08.285Z,0.50
2018-12-07T03:15:36.549Z,0.50
2018-12-07T03:18:04.606Z,0.80
2018-12-07T03:20:32.810Z,1.00
2018-12-07T03:23:00.915Z,0.60
2018-12-07T03:25:28.812Z,0.77
2018-12-07T03:27:57.008Z,0.80
2018-12-07T03:30:25.109Z,0.60
2018-12-07T03:32:53.305Z,0.80
2018-12-07T03:35:21.285Z,0.77
2018-12-07T03:37:49.242Z,0.90
2018-12-07T03:40:17.151Z,0.70
2018-12-07T03:42:45.119Z,0.57
2018-12-07T03:45:13.293Z,0.93
2018-12-07T03:47:41.176Z,0.80
2018-12-07T03:50:09.368Z,1.27
2018-12-07T03:52:37.492Z,0.63
2018-12-07T03:55:05.454Z,1.33
2018-12-07T03:57:33.336Z,1.20
2018-12-07T04:00:01.451Z,1.00
2018-12-07T04:02:29.735Z,1.30
2018-12-07T04:04:58.102Z,0.97
2018-12-07T04:07:26.281Z,1.57
2018-12-07T04:09:54.421Z,0.73
2018-12-07T04:12:22.679Z,1.60
2018-12-07T04:14:50.874Z,1.10
2018-12-07T04:17:19.160Z,1.10
2018-12-07T04:19:47.339Z,1.30
2018-12-07T04:22:15.612Z,1.27
2018-12-07T04:24:43.496Z,1.60
2018-12-07T04:27:11.789Z,1.40
2018-12-07T04:29:40.025Z,1.37
2018-12-07T04:32:08.301Z,1.50
2018-12-07T04:34:36.586Z,1.63
2018-12-07T04:37:04.443Z,1.00
2018-12-07T04:39:32.619Z,1.30
2018-12-07T04:42:00.830Z,1.17
2018-12-07T04:44:29.005Z,1.30
2018-12-07T04:46:56.964Z,1.37
2018-12-07T04:49:25.084Z,1.40
2018-12-07T04:51:53.268Z,1.30
2018-12-07T04:54:21.470Z,1.37
2018-12-07T04:56:49.516Z,1.53
2018-12-07T04:59:17.740Z,1.80
2018-12-07T05:01:45.919Z,1.10
2018-12-07T05:04:14.162Z,1.23
2018-12-07T05:06:42.433Z,1.33
2018-12-07T05:09:10.572Z,1.63
2018-12-07T05:11:38.837Z,1.23
2018-12-07T05:14:06.962Z,1.90
2018-12-07T05:16:35.141Z,1.10
2018-12-07T05:19:03.262Z,1.10
2018-12-07T05:21:31.410Z,1.30
2018-12-07T05:23:59.593Z,1.70
2018-12-07T05:26:27.708Z,1.33
2018-12-07T05:28:55.827Z,1.10
2018-12-07T05:31:23.788Z,1.40
2018-12-07T05:33:52.080Z,1.17
2018-12-07T05:36:20.290Z,1.53
2018-12-07T05:38:48.414Z,1.40
2018-12-07T05:41:16.617Z,1.40
2018-12-07T05:43:54.336Z,1.37
2018-12-07T05:46:22.693Z,1.50
2018-12-07T05:48:50.893Z,1.50
2018-12-07T05:51:19.016Z,1.23
2018-12-07T05:53:47.390Z,1.70
2018-12-07T05:56:15.592Z,1.33
2018-12-07T05:58:43.788Z,1.80
2018-12-07T06:01:12.007Z,1.37
2018-12-07T06:03:40.327Z,1.50
2018-12-07T06:06:08.603Z,1.77
2018-12-07T06:08:36.716Z,1.67
2018-12-07T06:11:05.005Z,1.83
2018-12-07T06:13:32.946Z,2.08
2018-12-07T06:16:01.145Z,1.80
2018-12-07T06:18:29.352Z,1.80
2018-12-07T06:20:57.596Z,1.53
2018-12-07T06:23:25.793Z,1.33
2018-12-07T06:25:54.969Z,1.33
2018-12-07T06:28:22.843Z,2.00
2018-12-07T06:30:51.138Z,1.20
2018-12-07T06:33:19.103Z,1.57
2018-12-07T06:35:47.079Z,1.43
2018-12-07T06:38:15.319Z,1.50
2018-12-07T06:40:43.223Z,1.40
2018-12-07T06:43:11.129Z,1.63
2018-12-07T06:45:40.194Z,1.60
2018-12-07T06:48:08.321Z,2.10
2018-12-07T06:50:37.005Z,1.70
2018-12-07T06:53:05.457Z,1.70
2018-12-07T06:55:33.427Z,1.73
2018-12-07T06:58:01.735Z,1.87
2018-12-07T07:00:29.876Z,1.73
2018-12-07T07:02:58.003Z,2.33
2018-12-07T07:05:25.901Z,2.30
2018-12-07T07:07:54.065Z,2.60
2018-12-07T07:10:21.963Z,2.80
2018-12-07T07:12:50.080Z,2.17
2018-12-07T07:15:18.299Z,2.03
2018-12-07T07:17:46.587Z,2.40
2018-12-07T07:20:14.700Z,2.40
2018-12-07T07:22:42.901Z,2.27
2018-12-07T07:25:11.012Z,1.90
2018-12-07T07:27:39.145Z,2.43
2018-12-07T07:30:08.957Z,2.47
2018-12-07T07:32:37.084Z,1.13
2018-12-07T07:35:05.444Z,2.60
2018-12-07T07:37:33.453Z,1.90
2018-12-07T07:40:01.393Z,1.97
2018-12-07T07:42:29.288Z,2.57
2018-12-07T07:44:57.204Z,1.90
2018-12-07T07:47:25.324Z,2.00
2018-12-07T07:49:53.508Z,1.63
2018-12-07T07:52:21.548Z,2.33
2018-12-07T07:54:49.695Z,2.20
2018-12-07T07:57:17.809Z,2.27
2018-12-07T07:59:46.092Z,1.97
2018-12-07T08:02:14.288Z,1.50
2018-12-07T08:04:42.494Z,1.30
2018-12-07T08:07:10.612Z,1.97
2018-12-07T08:09:38.751Z,1.53
2018-12-07T08:12:06.958Z,1.60
2018-12-07T08:14:35.015Z,1.40
2018-12-07T08:17:02.925Z,1.57
2018-12-07T08:19:31.145Z,1.13
2018-12-07T08:21:59.368Z,1.63
2018-12-07T08:24:27.604Z,1.40
2018-12-07T08:26:55.494Z,0.77
2018-12-07T08:29:23.636Z,1.17
2018-12-07T08:31:51.777Z,0.90
2018-12-07T08:34:19.891Z,0.90
2018-12-07T08:36:48.028Z,1.40
2018-12-07T08:39:16.244Z,1.40
2018-12-07T08:41:44.577Z,1.63
2018-12-07T08:44:12.574Z,1.30
2018-12-07T08:46:40.795Z,1.93
2018-12-07T08:49:08.691Z,1.30
2018-12-07T08:51:36.998Z,1.13
2018-12-07T08:54:04.905Z,0.83
2018-12-07T08:56:33.025Z,1.20
2018-12-07T08:59:01.165Z,1.20
2018-12-07T09:01:29.371Z,1.20
2018-12-07T09:03:57.496Z,1.20
2018-12-07T09:06:25.468Z,1.33
2018-12-07T09:08:53.459Z,1.63
2018-12-07T09:11:21.373Z,1.20
2018-12-07T09:13:49.348Z,1.20
2018-12-07T09:16:17.299Z,0.83
2018-12-07T09:18:45.188Z,1.27
2018-12-07T09:21:13.123Z,1.13
2018-12-07T09:26:15.768Z,0.80
2018-12-07T09:28:43.973Z,0.73
2018-12-07T09:31:12.097Z,0.87
2018-12-07T09:33:40.257Z,0.73
2018-12-07T09:36:08.397Z,0.77
2018-12-07T09:38:36.687Z,0.90
2018-12-07T09:41:05.096Z,0.80
2018-12-07T09:43:33.011Z,0.93
2018-12-07T09:46:01.123Z,0.70
2018-12-07T09:48:29.332Z,0.70
2018-12-07T09:50:57.465Z,0.67
2018-12-07T09:53:26.309Z,0.90
2018-12-07T09:55:54.439Z,0.87
2018-12-07T09:58:22.355Z,1.00
2018-12-07T10:00:50.468Z,1.23
2018-12-07T10:03:18.664Z,0.60
2018-12-07T10:05:46.791Z,0.50
2018-12-07T10:08:14.912Z,0.50
2018-12-07T10:10:42.879Z,0.60
2018-12-07T10:13:10.776Z,1.00
2018-12-07T10:15:38.887Z,0.63
2018-12-07T10:18:06.783Z,0.70
2018-12-07T10:20:34.982Z,0.90
2018-12-07T10:23:02.966Z,0.73
2018-12-07T10:25:31.104Z,0.47
2018-12-07T10:27:59.401Z,0.60
2018-12-07T10:30:27.507Z,0.70
2018-12-07T10:32:55.692Z,0.87
2018-12-07T10:35:23.880Z,0.63
2018-12-07T10:37:51.772Z,0.53
2018-12-07T10:40:19.983Z,0.60
2018-12-07T10:42:47.895Z,0.50
2018-12-07T10:45:16.012Z,0.50
2018-12-07T10:47:50.090Z,0.70
2018-12-07T10:50:14.268Z,0.50
2018-12-07T10:52:42.262Z,0.67
2018-12-07T10:55:10.289Z,0.80
2018-12-07T10:57:38.484Z,0.40
2018-12-07T11:00:11.892Z,0.57
2018-12-07T11:02:45.410Z,0.63
2018-12-07T11:05:18.891Z,0.63
2018-12-07T11:07:52.428Z,0.33
2018-12-07T11:10:25.935Z,0.37
2018-12-07T11:12:59.475Z,0.43
2018-12-07T11:15:32.965Z,0.43
2018-12-07T11:18:06.602Z,0.40
2018-12-07T11:20:40.203Z,0.50
2018-12-07T11:23:13.756Z,0.40
2018-12-07T11:25:47.241Z,0.80
2018-12-07T11:28:20.631Z,0.50
2018-12-07T11:30:54.064Z,0.50
2018-12-07T11:33:35.555Z,0.40
2018-12-07T11:36:08.139Z,0.40
2018-12-07T11:38:33.724Z,0.43
2018-12-07T11:41:01.702Z,0.33
2018-12-07T11:43:29.676Z,0.30
2018-12-07T11:45:57.559Z,0.57
2018-12-07T11:48:25.528Z,0.50
2018-12-07T11:50:53.731Z,0.40
2018-12-07T11:53:21.853Z,0.50
2018-12-07T11:55:50.040Z,0.50
2018-12-07T11:58:17.927Z,0.57
2018-12-07T12:00:46.180Z,0.40
2018-12-07T12:03:14.387Z,0.60
2018-12-07T12:05:42.582Z,0.30
2018-12-07T12:08:10.864Z,0.50
2018-12-07T12:10:39.365Z,0.30
2018-12-07T12:13:07.489Z,0.50
2018-12-07T12:15:35.375Z,0.63
2018-12-07T12:18:03.494Z,0.40
2018-12-07T12:20:31.405Z,0.50
2018-12-07T12:22:59.398Z,0.70
2018-12-07T12:25:27.280Z,0.60
2018-12-07T12:27:55.485Z,0.50
2018-12-07T12:30:24.197Z,0.40
2018-12-07T12:32:52.143Z,0.60
2018-12-07T12:35:21.584Z,0.57
2018-12-07T12:37:49.570Z,0.40
2018-12-07T12:40:17.582Z,0.40
2018-12-07T12:42:45.571Z,0.40
2018-12-07T12:45:13.451Z,0.30
2018-12-07T12:47:41.351Z,0.70
2018-12-07T12:50:13.796Z,0.27
2018-12-07T12:52:41.999Z,0.50
2018-12-07T12:55:10.229Z,0.50
2018-12-07T12:57:38.430Z,0.40
2018-12-07T13:00:06.664Z,0.43
2018-12-07T13:02:34.767Z,0.50
2018-12-07T13:05:02.783Z,0.50
2018-12-07T13:07:30.721Z,0.60
2018-12-07T13:09:59.007Z,0.40
2018-12-07T13:12:27.125Z,0.33
2018-12-07T13:14:55.431Z,0.27
2018-12-07T13:17:23.565Z,0.30
2018-12-07T13:19:51.455Z,0.50
2018-12-07T13:22:19.906Z,0.40
2018-12-07T13:24:48.116Z,0.30
2018-12-07T13:27:16.236Z,0.20
2018-12-07T13:29:44.435Z,0.50
2018-12-07T13:32:12.755Z,0.30
2018-12-07T13:34:40.898Z,0.33
2018-12-07T13:37:09.158Z,0.60
2018-12-07T13:39:37.063Z,0.33
2018-12-07T13:42:05.065Z,0.33
2018-12-07T13:44:33.347Z,0.50
2018-12-07T13:47:01.537Z,0.23
2018-12-07T13:49:29.842Z,0.50
2018-12-07T13:51:58.167Z,0.30
2018-12-07T13:54:26.469Z,0.30
2018-12-07T13:56:54.807Z,0.47
2018-12-07T13:59:23.363Z,0.40
2018-12-07T14:01:51.404Z,0.60
2018-12-07T14:04:19.676Z,0.37
2018-12-07T14:06:47.686Z,0.67
2018-12-07T14:09:15.947Z,0.47
2018-12-07T14:11:43.980Z,0.50
2018-12-07T14:14:12.003Z,0.50
2018-12-07T14:16:40.006Z,0.60
2018-12-07T14:19:08.046Z,0.57
2018-12-07T14:21:36.191Z,0.40
2018-12-07T14:24:04.576Z,0.40
2018-12-07T14:26:33.024Z,0.50
2018-12-07T14:29:01.341Z,0.40
2018-12-07T14:31:29.809Z,0.27
2018-12-07T14:33:57.958Z,0.50
2018-12-07T14:36:26.207Z,0.60
2018-12-07T14:38:54.248Z,0.50
2018-12-07T14:41:22.659Z,0.40
2018-12-07T14:43:51.845Z,0.40
2018-12-07T14:46:20.154Z,0.50
2018-12-07T14:48:48.331Z,0.50
2018-12-07T14:51:16.247Z,0.30
2018-12-07T14:53:44.469Z,0.50
2018-12-07T14:56:12.841Z,0.70
2018-12-07T14:58:40.765Z,0.30
2018-12-07T15:01:08.833Z,0.30
2018-12-07T15:03:37.139Z,0.40
2018-12-07T15:06:05.079Z,0.40
2018-12-07T15:08:33.215Z,0.40
2018-12-07T15:11:01.254Z,0.50
2018-12-07T15:13:29.311Z,0.40
2018-12-07T15:15:57.268Z,1.27
2018-12-07T15:18:25.215Z,0.30
2018-12-07T15:20:53.519Z,0.60
2018-12-07T15:23:21.802Z,0.50
2018-12-07T15:25:50.129Z,0.50
2018-12-07T15:28:18.100Z,0.60
2018-12-07T15:30:46.420Z,0.60
2018-12-07T15:33:14.879Z,0.40
2018-12-07T15:35:42.936Z,0.47
2018-12-07T15:38:11.131Z,0.93
2018-12-07T15:40:39.384Z,0.70
2018-12-07T15:43:07.470Z,0.50
2018-12-07T15:45:35.491Z,0.40
2018-12-07T15:48:03.608Z,0.93
2018-12-07T15:50:31.865Z,0.40
2018-12-07T15:53:00.043Z,0.50
2018-12-07T15:55:28.221Z,0.40
2018-12-07T15:57:56.606Z,0.50
2018-12-07T16:00:24.973Z,0.60
2018-12-07T16:02:52.991Z,0.60
2018-12-07T16:05:21.146Z,0.30
2018-12-07T16:07:49.258Z,0.40
2018-12-07T16:10:17.389Z,0.40
2018-12-07T16:12:45.305Z,0.30
2018-12-07T16:15:13.185Z,0.60
2018-12-07T16:17:41.461Z,0.50
2018-12-07T16:20:14.027Z,0.50
2018-12-07T16:22:42.228Z,0.70
2018-12-07T16:25:10.528Z,0.53
2018-12-07T16:27:39.496Z,0.77
2018-12-07T16:30:09.410Z,0.40
2018-12-07T16:32:38.089Z,0.60
2018-12-07T16:35:06.796Z,0.40
2018-12-07T16:37:35.143Z,0.40
2018-12-07T16:40:03.795Z,0.40
2018-12-07T16:42:31.887Z,0.50
2018-12-07T16:45:00.029Z,0.40
2018-12-07T16:47:29.371Z,0.53
2018-12-07T16:49:57.897Z,0.60
2018-12-07T16:52:26.492Z,0.67
2018-12-07T16:54:54.824Z,0.50
2018-12-07T16:57:23.205Z,0.47
2018-12-07T16:59:51.497Z,0.77
2018-12-07T17:02:19.744Z,0.50
2018-12-07T17:04:47.871Z,0.50
2018-12-07T17:07:16.241Z,0.57
2018-12-07T17:09:44.483Z,0.40
2018-12-07T17:12:13.091Z,0.60
2018-12-07T17:14:41.269Z,0.50
2018-12-07T17:17:09.328Z,0.70
2018-12-07T17:19:37.345Z,0.50
2018-12-07T17:22:05.561Z,0.50
2018-12-07T17:24:33.841Z,0.30
2018-12-07T17:27:02.172Z,0.60
2018-12-07T17:29:30.534Z,0.30
2018-12-07T17:31:58.891Z,0.70
2018-12-07T17:34:27.174Z,0.47
2018-12-07T17:36:56.472Z,0.70
2018-12-07T17:39:24.839Z,0.63
2018-12-07T17:41:53.168Z,0.57
2018-12-07T17:44:21.174Z,0.80
2018-12-07T17:46:49.186Z,0.63
2018-12-07T17:49:17.434Z,0.70
2018-12-07T17:51:45.337Z,0.63
2018-12-07T17:54:13.323Z,0.73
2018-12-07T17:56:42.501Z,1.20
2018-12-07T17:59:10.964Z,1.10
2018-12-07T18:01:45.940Z,1.00
2018-12-07T18:04:14.077Z,0.90
2018-12-07T18:06:42.550Z,0.60
2018-12-07T18:09:10.606Z,0.53
2018-12-07T18:11:38.902Z,0.63
2018-12-07T18:14:07.163Z,0.60
2018-12-07T18:16:35.344Z,1.20
2018-12-07T18:19:03.857Z,1.43
2018-12-07T18:21:32.865Z,1.27
2018-12-07T18:24:00.936Z,1.97
2018-12-07T18:26:29.240Z,1.60
2018-12-07T18:28:57.792Z,2.90
2018-12-07T18:31:26.050Z,2.50
2018-12-07T18:33:54.408Z,1.70
2018-12-07T18:36:22.664Z,1.20
2018-12-07T18:38:50.825Z,1.30
2018-12-07T18:41:19.191Z,1.00
2018-12-07T18:43:47.147Z,1.43
2018-12-07T18:46:15.134Z,0.80
2018-12-07T18:48:43.234Z,0.90
2018-12-07T18:51:11.406Z,1.00
2018-12-07T18:53:39.591Z,0.90
2018-12-07T18:56:07.860Z,1.07
2018-12-07T18:58:36.027Z,0.60
2018-12-07T19:01:04.553Z,0.80
2018-12-07T19:03:32.932Z,1.10
2018-12-07T19:06:01.294Z,0.67
2018-12-07T19:08:29.262Z,0.50
2018-12-07T19:10:57.382Z,0.90
2018-12-07T19:13:25.337Z,1.00
2018-12-07T19:15:53.409Z,1.47
2018-12-07T19:18:21.573Z,1.67
2018-12-07T19:20:49.793Z,0.70
2018-12-07T19:23:18.056Z,0.60
2018-12-07T19:25:46.364Z,0.63
2018-12-07T19:28:14.539Z,0.60
2018-12-07T19:30:42.864Z,0.80
2018-12-07T19:33:10.997Z,0.60
2018-12-07T19:35:39.049Z,0.80
2018-12-07T19:38:07.200Z,0.90
2018-12-07T19:40:35.450Z,0.77
2018-12-07T19:43:03.551Z,0.83
2018-12-07T19:45:31.588Z,1.00
2018-12-07T19:47:59.699Z,1.20
2018-12-07T19:50:27.972Z,1.60
2018-12-07T19:52:56.268Z,1.40
2018-12-07T19:55:24.522Z,0.70
2018-12-07T19:57:52.908Z,1.10
2018-12-07T20:00:21.335Z,0.90
2018-12-07T20:02:50.502Z,0.80
2018-12-07T20:05:19.121Z,1.23
2018-12-07T20:07:47.663Z,1.17
2018-12-07T20:10:16.106Z,1.10
2018-12-07T20:12:44.499Z,1.30
2018-12-07T20:15:12.808Z,1.20
2018-12-07T20:17:41.423Z,0.63
2018-12-07T20:20:09.863Z,1.00
2018-12-07T20:22:38.077Z,1.50
2018-12-07T20:25:06.540Z,1.50
2018-12-07T20:27:34.984Z,1.37
2018-12-07T20:30:03.808Z,1.40
2018-12-07T20:32:31.956Z,1.30
2018-12-07T20:35:00.155Z,0.80
2018-12-07T20:37:28.282Z,1.03
2018-12-07T20:39:56.408Z,1.50
2018-12-07T20:42:24.637Z,0.90
2018-12-07T20:44:52.649Z,1.50
2018-12-07T20:47:24.980Z,0.70
2018-12-07T20:49:50.967Z,1.53
2018-12-07T20:52:19.077Z,1.40
2018-12-07T20:54:47.410Z,0.80
2018-12-07T20:57:15.887Z,1.00
2018-12-07T20:59:44.214Z,0.73
2018-12-07T21:02:12.655Z,1.10
2018-12-07T21:04:42.023Z,1.30
2018-12-07T21:08:25.537Z,1.40
2018-12-07T21:11:01.273Z,1.60
2018-12-07T21:14:36.545Z,0.93
2018-12-07T21:17:11.847Z,1.00
2018-12-07T21:19:45.857Z,1.20
2018-12-07T21:22:14.344Z,0.90
2018-12-07T21:24:42.829Z,1.20
2018-12-07T21:27:11.311Z,1.10
2018-12-07T21:29:41.928Z,1.30
2018-12-07T21:32:15.734Z,2.13
2018-12-07T21:34:54.883Z,1.97
2018-12-07T21:37:23.136Z,1.07
2018-12-07T21:39:58.468Z,1.90
2018-12-07T21:42:26.935Z,0.83
2018-12-07T21:44:55.358Z,1.37
2018-12-07T21:47:37.729Z,1.63
2018-12-07T21:50:12.212Z,2.50
2018-12-07T21:52:40.530Z,1.47
2018-12-07T21:55:08.779Z,1.07
2018-12-07T21:57:36.991Z,1.30
2018-12-07T22:00:05.900Z,2.20
2018-12-07T22:02:34.278Z,1.80
2018-12-07T22:05:02.648Z,1.93
2018-12-07T22:07:30.859Z,1.50
2018-12-07T22:10:01.113Z,2.27
2018-12-07T22:12:29.534Z,2.07
2018-12-07T22:14:57.489Z,2.20
2018-12-07T22:17:25.707Z,2.00
2018-12-07T22:19:53.982Z,1.93
2018-12-07T22:22:22.152Z,2.00
2018-12-07T22:24:50.606Z,1.50
2018-12-07T22:27:19.120Z,1.70
2018-12-07T22:29:47.633Z,1.80
2018-12-07T22:32:15.827Z,2.07
2018-12-07T22:34:44.093Z,1.30
2018-12-07T22:37:12.398Z,2.43
2018-12-07T22:39:40.421Z,2.10
2018-12-07T22:42:08.714Z,1.63
2018-12-07T22:44:36.995Z,1.97
2018-12-07T22:47:05.679Z,1.93
2018-12-07T22:49:33.803Z,1.30
2018-12-07T22:52:01.691Z,1.73
2018-12-07T22:54:29.868Z,1.63
2018-12-07T22:56:57.982Z,1.40
2018-12-07T22:59:26.242Z,1.77
2018-12-07T23:01:54.545Z,0.90
2018-12-07T23:04:22.732Z,1.70
2018-12-07T23:06:50.900Z,1.07
2018-12-07T23:09:19.068Z,1.60
2018-12-07T23:11:47.206Z,1.43
2018-12-07T23:14:15.263Z,1.17
2018-12-07T23:16:43.466Z,1.83
2018-12-07T23:19:11.611Z,1.00
2018-12-07T23:21:39.843Z,1.23
2018-12-07T23:24:08.061Z,2.37
2018-12-07T23:26:36.160Z,1.30
2018-12-07T23:29:09.712Z,2.00
2018-12-07T23:31:37.820Z,0.80
2018-12-07T23:34:05.928Z,1.17
2018-12-07T23:36:34.029Z,1.80
2018-12-07T23:39:02.076Z,1.10
2018-12-07T23:41:30.260Z,1.30
2018-12-07T23:44:05.131Z,1.93
2018-12-07T23:46:33.432Z,1.63
2018-12-07T23:49:01.720Z,1.90
2018-12-07T23:51:29.896Z,1.30
2018-12-07T23:53:58.092Z,1.63
2018-12-07T23:56:26.419Z,1.30
2018-12-07T23:58:54.513Z,1.67
